createdAt,value
2019-05-01T00:01:15.629Z,92.80
2019-05-01T00:04:03.892Z,92.80
2019-05-01T00:06:38.473Z,93.10
2019-05-01T00:09:12.143Z,93.00
2019-05-01T00:11:42.484Z,93.20
2019-05-01T00:14:12.821Z,93.20
2019-05-01T00:16:43.270Z,93.40
2019-05-01T00:19:13.690Z,93.40
2019-05-01T00:21:44.021Z,93.40
2019-05-01T00:24:14.346Z,93.60
2019-05-01T00:26:44.813Z,93.70
2019-05-01T00:29:15.153Z,93.80
2019-05-01T00:31:45.593Z,94.00
2019-05-01T00:34:15.972Z,94.10
2019-05-01T00:36:46.481Z,94.10
2019-05-01T00:39:18.350Z,94.20
2019-05-01T00:41:48.834Z,94.20
2019-05-01T00:44:19.206Z,94.30
2019-05-01T00:46:49.551Z,94.40
2019-05-01T00:49:19.889Z,94.50
2019-05-01T00:51:50.234Z,94.70
2019-05-01T00:54:20.615Z,94.80
2019-05-01T00:57:03.221Z,94.90
2019-05-01T00:59:55.574Z,94.80
2019-05-01T01:02:38.973Z,94.90
2019-05-01T01:05:11.022Z,94.90
2019-05-01T01:07:41.361Z,95.00
2019-05-01T01:10:11.773Z,94.80
2019-05-01T01:12:42.104Z,94.90
2019-05-01T01:15:12.410Z,95.00
2019-05-01T01:17:42.738Z,95.10
2019-05-01T01:20:13.053Z,95.40
2019-05-01T01:22:43.362Z,95.50
2019-05-01T01:25:13.641Z,95.90
2019-05-01T01:27:43.973Z,95.80
2019-05-01T01:30:14.388Z,95.90
2019-05-01T01:32:44.789Z,96.10
2019-05-01T01:35:15.153Z,96.30
2019-05-01T01:37:45.473Z,96.30
2019-05-01T01:40:16.080Z,96.50
2019-05-01T01:42:48.263Z,96.50
2019-05-01T01:45:31.482Z,96.70
2019-05-01T01:48:16.020Z,97.00
2019-05-01T01:50:47.143Z,97.10
2019-05-01T01:53:20.533Z,97.20
2019-05-01T01:55:51.766Z,97.30
2019-05-01T01:58:23.246Z,97.30
2019-05-01T02:01:12.701Z,97.50
2019-05-01T02:03:46.314Z,97.60
2019-05-01T02:06:16.621Z,97.50
2019-05-01T02:08:56.321Z,97.60
2019-05-01T02:11:19.598Z,97.70
2019-05-01T02:13:50.329Z,97.60
2019-05-01T02:16:20.650Z,97.60
2019-05-01T02:18:50.965Z,97.60
2019-05-01T02:21:21.277Z,97.60
2019-05-01T02:23:51.600Z,97.60
2019-05-01T02:26:23.595Z,97.80
2019-05-01T02:29:01.043Z,98.00
2019-05-01T02:31:42.080Z,98.40
2019-05-01T02:34:12.697Z,98.20
2019-05-01T02:36:44.842Z,98.30
2019-05-01T02:39:17.273Z,98.60
2019-05-01T02:41:49.383Z,98.50
2019-05-01T02:44:25.279Z,98.60
2019-05-01T02:46:58.519Z,98.60
2019-05-01T02:49:35.521Z,98.70
2019-05-01T02:52:08.142Z,98.80
2019-05-01T02:54:40.624Z,99.40
2019-05-01T02:57:13.554Z,99.50
2019-05-01T02:59:47.135Z,99.80
2019-05-01T03:02:19.033Z,99.90
2019-05-01T03:04:49.975Z,99.90
2019-05-01T03:07:21.621Z,99.90
2019-05-01T03:09:52.734Z,99.90
2019-05-01T03:12:26.165Z,99.90
2019-05-01T03:14:59.577Z,99.90
2019-05-01T03:17:52.625Z,99.90
2019-05-01T03:20:31.061Z,99.90
2019-05-01T03:23:30.991Z,99.90
2019-05-01T03:26:02.014Z,99.90
2019-05-01T03:28:32.831Z,99.80
2019-05-01T03:31:03.305Z,99.60
2019-05-01T03:33:34.516Z,99.50
2019-05-01T03:36:05.525Z,99.60
2019-05-01T03:38:36.114Z,99.50
2019-05-01T03:41:08.665Z,99.70
2019-05-01T03:43:40.023Z,99.90
2019-05-01T03:46:11.116Z,99.90
2019-05-01T03:48:42.621Z,99.90
2019-05-01T03:51:13.252Z,99.90
2019-05-01T03:53:43.950Z,99.90
2019-05-01T03:56:14.849Z,99.90
2019-05-01T03:58:45.413Z,99.90
2019-05-01T04:01:35.078Z,99.90
2019-05-01T04:04:09.297Z,99.90
2019-05-01T04:06:39.904Z,99.90
2019-05-01T04:09:10.253Z,99.90
2019-05-01T04:11:40.810Z,99.90
2019-05-01T04:14:11.594Z,99.90
2019-05-01T04:16:43.925Z,99.90
2019-05-01T04:19:14.646Z,99.90
2019-05-01T04:21:53.374Z,99.90
2019-05-01T04:24:23.719Z,99.90
2019-05-01T04:26:54.240Z,99.90
2019-05-01T04:29:36.550Z,99.90
2019-05-01T04:32:15.432Z,99.90
2019-05-01T04:35:07.717Z,99.90
2019-05-01T04:37:38.562Z,99.90
2019-05-01T04:40:08.865Z,99.90
2019-05-01T04:42:39.764Z,99.90
2019-05-01T04:45:10.275Z,99.90
2019-05-01T04:47:40.825Z,99.90
2019-05-01T04:50:11.351Z,99.90
2019-05-01T04:52:41.858Z,99.90
2019-05-01T04:55:12.655Z,99.90
2019-05-01T04:57:43.296Z,99.90
2019-05-01T05:00:13.805Z,99.90
2019-05-01T05:03:04.044Z,99.90
2019-05-01T05:05:26.219Z,99.90
2019-05-01T05:07:56.721Z,99.90
2019-05-01T05:10:27.425Z,99.90
2019-05-01T05:13:06.177Z,99.90
2019-05-01T05:15:54.810Z,99.90
2019-05-01T05:18:25.577Z,99.90
2019-05-01T05:20:56.181Z,99.90
2019-05-01T05:23:27.230Z,99.90
2019-05-01T05:25:57.545Z,99.90
2019-05-01T05:28:31.320Z,99.90
2019-05-01T05:31:02.465Z,99.90
2019-05-01T05:33:35.771Z,99.90
2019-05-01T05:36:07.959Z,99.90
2019-05-01T05:39:06.490Z,99.90
2019-05-01T05:41:38.655Z,99.90
2019-05-01T05:44:09.045Z,99.90
2019-05-01T05:46:39.401Z,99.90
2019-05-01T05:49:09.962Z,99.90
2019-05-01T05:52:00.185Z,99.90
2019-05-01T05:55:06.181Z,99.90
2019-05-01T05:57:43.897Z,99.90
2019-05-01T06:00:25.096Z,99.90
2019-05-01T06:03:07.806Z,99.90
2019-05-01T06:06:00.315Z,99.90
2019-05-01T06:08:33.198Z,99.90
2019-05-01T06:11:33.928Z,99.90
2019-05-01T06:14:21.649Z,99.90
2019-05-01T06:17:14.065Z,99.90
2019-05-01T06:19:52.234Z,99.90
2019-05-01T06:22:40.808Z,99.90
2019-05-01T06:25:22.635Z,99.90
2019-05-01T06:27:50.642Z,99.90
2019-05-01T06:30:21.037Z,99.90
2019-05-01T06:32:51.349Z,99.90
2019-05-01T06:35:21.912Z,99.90
2019-05-01T06:38:04.917Z,99.90
2019-05-01T06:40:44.866Z,99.90
2019-05-01T06:43:35.005Z,99.90
2019-05-01T06:46:27.198Z,99.90
2019-05-01T06:49:03.270Z,99.90
2019-05-01T06:51:53.185Z,99.90
2019-05-01T06:54:21.216Z,99.90
2019-05-01T06:56:51.936Z,99.90
2019-05-01T06:59:26.180Z,99.90
2019-05-01T07:01:58.441Z,99.90
2019-05-01T07:04:32.287Z,99.90
2019-05-01T07:07:06.729Z,99.90
2019-05-01T07:09:37.309Z,99.90
2019-05-01T07:12:12.867Z,99.90
2019-05-01T07:14:47.082Z,99.90
2019-05-01T07:17:15.793Z,99.90
2019-05-01T07:20:04.366Z,99.90
2019-05-01T07:22:37.135Z,99.90
2019-05-01T07:25:07.684Z,99.90
2019-05-01T07:27:40.139Z,99.90
2019-05-01T07:30:19.594Z,99.90
2019-05-01T07:32:50.189Z,99.90
2019-05-01T07:35:20.745Z,99.90
2019-05-01T07:37:51.157Z,99.90
2019-05-01T07:40:28.968Z,99.90
2019-05-01T07:42:59.884Z,99.90
2019-05-01T07:46:02.344Z,99.90
2019-05-01T07:48:41.458Z,99.90
2019-05-01T07:51:09.117Z,99.90
2019-05-01T07:53:40.314Z,99.90
2019-05-01T07:56:10.954Z,99.90
2019-05-01T07:58:41.476Z,99.90
2019-05-01T08:01:21.001Z,99.90
2019-05-01T08:03:51.322Z,99.90
2019-05-01T08:07:41.054Z,99.90
2019-05-01T08:10:11.662Z,99.90
2019-05-01T08:12:44.885Z,99.90
2019-05-01T08:15:14.042Z,99.90
2019-05-01T08:17:48.741Z,99.90
2019-05-01T08:20:24.798Z,99.90
2019-05-01T08:22:55.124Z,99.90
2019-05-01T08:25:28.775Z,99.90
2019-05-01T08:28:21.480Z,99.90
2019-05-01T08:31:27.297Z,99.90
2019-05-01T08:34:02.849Z,99.90
2019-05-01T08:36:33.319Z,99.00
2019-05-01T08:39:09.102Z,99.50
2019-05-01T08:41:38.053Z,99.00
2019-05-01T08:44:08.944Z,99.10
2019-05-01T08:46:50.963Z,98.00
2019-05-01T08:49:52.092Z,98.50
2019-05-01T08:52:22.594Z,98.70
2019-05-01T08:54:54.876Z,97.70
2019-05-01T08:57:29.204Z,96.70
2019-05-01T09:00:00.430Z,96.70
2019-05-01T09:02:29.559Z,95.30
2019-05-01T09:05:02.552Z,95.50
2019-05-01T09:07:32.056Z,94.90
2019-05-01T09:10:02.510Z,94.90
2019-05-01T09:12:32.852Z,94.80
2019-05-01T09:15:07.275Z,95.80
2019-05-01T09:17:35.573Z,95.20
2019-05-01T09:20:07.169Z,94.30
2019-05-01T09:22:38.025Z,93.40
2019-05-01T09:25:10.519Z,93.40
2019-05-01T09:27:59.517Z,93.10
2019-05-01T09:30:38.031Z,93.70
2019-05-01T09:33:08.354Z,92.70
2019-05-01T09:35:40.352Z,92.00
2019-05-01T09:38:10.976Z,92.40
2019-05-01T09:40:41.830Z,92.60
2019-05-01T09:43:12.149Z,91.50
2019-05-01T09:45:42.545Z,91.30
2019-05-01T09:48:12.893Z,90.30
2019-05-01T09:50:48.212Z,89.60
2019-05-01T09:53:29.734Z,89.70
2019-05-01T09:56:07.331Z,87.60
2019-05-01T09:58:35.380Z,87.60
2019-05-01T10:01:05.764Z,88.10
2019-05-01T10:03:36.227Z,88.60
2019-05-01T10:06:07.648Z,88.80
2019-05-01T10:08:39.934Z,87.00
2019-05-01T10:11:11.408Z,85.00
2019-05-01T10:13:41.829Z,82.60
2019-05-01T10:16:18.828Z,82.90
2019-05-01T10:18:49.291Z,82.60
2019-05-01T10:21:22.305Z,83.50
2019-05-01T10:23:52.957Z,82.50
2019-05-01T10:26:25.799Z,82.00
2019-05-01T10:29:21.434Z,82.40
2019-05-01T10:32:21.517Z,81.70
2019-05-01T10:34:59.626Z,82.90
2019-05-01T10:37:33.533Z,82.40
2019-05-01T10:40:04.274Z,82.90
2019-05-01T10:42:34.727Z,83.40
2019-05-01T10:45:05.926Z,81.90
2019-05-01T10:47:36.540Z,81.00
2019-05-01T10:50:07.211Z,80.40
2019-05-01T10:52:37.483Z,80.40
2019-05-01T10:55:07.896Z,81.00
2019-05-01T10:57:40.256Z,80.20
2019-05-01T11:00:11.100Z,80.80
2019-05-01T11:02:41.566Z,78.20
2019-05-01T11:05:13.982Z,78.70
2019-05-01T11:07:44.327Z,79.00
2019-05-01T11:10:15.061Z,78.40
2019-05-01T11:12:45.516Z,79.70
2019-05-01T11:15:16.226Z,80.50
2019-05-01T11:17:46.647Z,80.10
2019-05-01T11:20:16.980Z,79.30
2019-05-01T11:22:48.397Z,78.80
2019-05-01T11:25:20.761Z,78.20
2019-05-01T11:27:51.165Z,78.30
2019-05-01T11:30:21.709Z,79.20
2019-05-01T11:33:11.087Z,79.50
2019-05-01T11:36:09.308Z,79.70
2019-05-01T11:38:40.221Z,80.20
2019-05-01T11:41:24.112Z,78.60
2019-05-01T11:43:54.575Z,80.00
2019-05-01T11:46:25.095Z,79.50
2019-05-01T11:48:55.473Z,80.40
2019-05-01T11:51:25.797Z,78.90
2019-05-01T11:53:56.151Z,78.20
2019-05-01T11:56:26.661Z,77.50
2019-05-01T11:58:57.071Z,76.60
2019-05-01T12:01:27.515Z,76.20
2019-05-01T12:03:57.930Z,77.00
2019-05-01T12:06:28.401Z,76.00
2019-05-01T12:08:58.822Z,76.70
2019-05-01T12:11:31.370Z,75.80
2019-05-01T12:14:01.761Z,75.80
2019-05-01T12:16:50.333Z,75.10
2019-05-01T12:19:21.033Z,74.20
2019-05-01T12:21:53.374Z,74.00
2019-05-01T12:24:23.430Z,74.20
2019-05-01T12:26:53.785Z,73.40
2019-05-01T12:29:24.185Z,73.70
2019-05-01T12:31:54.662Z,73.00
2019-05-01T12:34:25.036Z,73.30
2019-05-01T12:37:14.700Z,72.80
2019-05-01T12:39:45.088Z,73.60
2019-05-01T12:42:16.507Z,75.70
2019-05-01T12:44:46.817Z,73.50
2019-05-01T12:47:25.877Z,72.60
2019-05-01T12:49:56.809Z,71.80
2019-05-01T12:52:58.525Z,71.20
2019-05-01T12:55:49.394Z,71.20
2019-05-01T12:58:19.798Z,71.70
2019-05-01T13:00:52.542Z,72.40
2019-05-01T13:03:22.858Z,72.50
2019-05-01T13:05:53.292Z,72.20
2019-05-01T13:08:25.250Z,72.30
2019-05-01T13:10:55.229Z,72.80
2019-05-01T13:13:25.556Z,73.30
2019-05-01T13:15:55.916Z,73.60
2019-05-01T13:18:27.481Z,73.10
2019-05-01T13:20:57.735Z,73.10
2019-05-01T13:23:28.061Z,72.00
2019-05-01T13:26:08.334Z,71.20
2019-05-01T13:28:56.930Z,70.80
2019-05-01T13:31:46.728Z,70.30
2019-05-01T13:34:17.149Z,71.40
2019-05-01T13:36:47.469Z,71.80
2019-05-01T13:39:17.893Z,71.60
2019-05-01T13:41:48.258Z,71.10
2019-05-01T13:44:18.741Z,72.10
2019-05-01T13:46:49.101Z,71.30
2019-05-01T13:49:19.405Z,72.20
2019-05-01T13:51:50.252Z,72.30
2019-05-01T13:54:20.586Z,72.10
2019-05-01T13:56:50.998Z,71.60
2019-05-01T13:59:21.770Z,72.30
2019-05-01T14:01:52.062Z,71.50
2019-05-01T14:04:22.376Z,72.70
2019-05-01T14:06:53.134Z,72.90
2019-05-01T14:09:33.494Z,72.50
2019-05-01T14:12:04.012Z,73.50
2019-05-01T14:14:34.320Z,73.40
2019-05-01T14:17:05.115Z,74.00
2019-05-01T14:19:41.815Z,73.80
2019-05-01T14:22:34.187Z,73.30
2019-05-01T14:25:06.645Z,73.70
2019-05-01T14:27:38.158Z,74.00
2019-05-01T14:30:11.049Z,72.90
2019-05-01T14:32:41.671Z,72.70
2019-05-01T14:35:12.649Z,71.90
2019-05-01T14:37:43.020Z,72.50
2019-05-01T14:40:13.765Z,73.00
2019-05-01T14:42:44.138Z,72.80
2019-05-01T14:45:15.121Z,72.80
2019-05-01T14:47:45.561Z,73.80
2019-05-01T14:50:16.003Z,73.80
2019-05-01T14:52:46.321Z,73.00
2019-05-01T14:55:16.650Z,72.30
2019-05-01T14:57:46.959Z,73.30
2019-05-01T15:00:17.832Z,74.50
2019-05-01T15:02:48.242Z,73.00
2019-05-01T15:05:18.558Z,72.60
2019-05-01T15:07:48.894Z,73.00
2019-05-01T15:10:19.237Z,72.50
2019-05-01T15:12:51.888Z,72.20
2019-05-01T15:15:30.522Z,72.40
2019-05-01T15:18:06.292Z,72.60
2019-05-01T15:20:36.617Z,72.80
2019-05-01T15:23:07.118Z,72.60
2019-05-01T15:25:38.653Z,72.80
2019-05-01T15:28:08.914Z,72.00
2019-05-01T15:30:39.516Z,72.70
2019-05-01T15:33:09.852Z,72.40
2019-05-01T15:35:40.277Z,73.80
2019-05-01T15:38:10.611Z,73.00
2019-05-01T15:40:47.874Z,72.40
2019-05-01T15:43:30.196Z,72.10
2019-05-01T15:46:00.586Z,72.90
2019-05-01T15:48:30.925Z,73.20
2019-05-01T15:51:01.363Z,72.80
2019-05-01T15:53:31.694Z,72.50
2019-05-01T15:56:02.000Z,73.20
2019-05-01T15:58:32.379Z,73.50
2019-05-01T16:01:02.767Z,72.90
2019-05-01T16:03:33.105Z,72.90
2019-05-01T16:06:03.414Z,73.50
2019-05-01T16:08:33.752Z,73.70
2019-05-01T16:11:10.509Z,73.20
2019-05-01T16:13:40.863Z,73.20
2019-05-01T16:16:12.391Z,72.80
2019-05-01T16:18:42.717Z,72.10
2019-05-01T16:21:13.065Z,72.60
2019-05-01T16:23:43.408Z,72.90
2019-05-01T16:26:15.716Z,73.70
2019-05-01T16:28:45.729Z,72.50
2019-05-01T16:31:16.120Z,71.30
2019-05-01T16:33:46.500Z,71.90
2019-05-01T16:36:16.812Z,70.00
2019-05-01T16:39:06.418Z,69.80
2019-05-01T16:41:36.726Z,69.80
2019-05-01T16:44:07.398Z,69.70
2019-05-01T16:46:37.831Z,70.20
2019-05-01T16:49:08.185Z,69.20
2019-05-01T16:51:38.672Z,69.00
2019-05-01T16:54:09.620Z,68.80
2019-05-01T16:56:40.179Z,69.20
2019-05-01T16:59:10.520Z,69.20
2019-05-01T17:01:59.931Z,69.50
2019-05-01T17:04:53.682Z,69.50
2019-05-01T17:07:34.858Z,69.50
2019-05-01T17:10:12.142Z,69.50
2019-05-01T17:12:46.127Z,69.40
2019-05-01T17:15:19.801Z,69.10
2019-05-01T17:17:50.180Z,70.00
2019-05-01T17:20:23.997Z,69.90
2019-05-01T17:22:52.929Z,69.70
2019-05-01T17:25:23.316Z,69.80
2019-05-01T17:27:53.642Z,69.50
2019-05-01T17:30:46.668Z,69.40
2019-05-01T17:33:20.981Z,69.50
2019-05-01T17:35:49.066Z,69.50
2019-05-01T17:38:19.384Z,69.60
2019-05-01T17:40:52.162Z,69.10
2019-05-01T17:43:21.660Z,69.60
2019-05-01T17:45:52.572Z,69.80
2019-05-01T17:48:23.008Z,69.90
2019-05-01T17:50:55.005Z,69.50
2019-05-01T17:53:25.358Z,70.20
2019-05-01T17:55:55.766Z,70.20
2019-05-01T17:58:26.185Z,70.70
2019-05-01T18:01:20.189Z,70.60
2019-05-01T18:04:00.823Z,70.90
2019-05-01T18:06:36.473Z,71.00
2019-05-01T18:09:13.493Z,71.20
2019-05-01T18:11:40.791Z,71.70
2019-05-01T18:14:11.127Z,71.70
2019-05-01T18:16:41.527Z,71.70
2019-05-01T18:19:11.972Z,72.10
2019-05-01T18:21:46.729Z,72.50
2019-05-01T18:24:34.929Z,72.60
2019-05-01T18:27:19.090Z,72.70
2019-05-01T18:29:51.217Z,73.30
2019-05-01T18:32:47.431Z,73.60
2019-05-01T18:35:16.123Z,73.90
2019-05-01T18:38:21.042Z,74.50
2019-05-01T18:41:01.222Z,74.50
2019-05-01T18:43:32.603Z,74.90
2019-05-01T18:46:08.127Z,75.30
2019-05-01T18:48:38.146Z,75.60
2019-05-01T18:51:08.526Z,75.80
2019-05-01T18:53:40.461Z,76.10
2019-05-01T18:56:10.864Z,76.20
2019-05-01T18:58:41.262Z,76.50
2019-05-01T19:01:13.518Z,76.70
2019-05-01T19:03:44.218Z,77.00
2019-05-01T19:06:15.114Z,77.40
2019-05-01T19:08:46.927Z,77.70
2019-05-01T19:11:16.813Z,77.90
2019-05-01T19:13:47.361Z,78.10
2019-05-01T19:16:19.412Z,78.70
2019-05-01T19:18:50.184Z,78.70
2019-05-01T19:21:23.817Z,79.10
2019-05-01T19:23:54.365Z,80.00
2019-05-01T19:26:25.008Z,80.60
2019-05-01T19:28:55.314Z,80.00
2019-05-01T19:31:25.858Z,80.30
2019-05-01T19:33:56.244Z,80.50
2019-05-01T19:36:26.571Z,80.80
2019-05-01T19:38:57.437Z,81.30
2019-05-01T19:41:28.131Z,81.90
2019-05-01T19:43:58.449Z,82.50
2019-05-01T19:46:28.855Z,83.50
2019-05-01T19:48:59.335Z,84.10
2019-05-01T19:51:29.878Z,84.80
2019-05-01T19:54:00.459Z,85.70
2019-05-01T19:56:31.681Z,86.50
2019-05-01T19:59:04.137Z,87.30
2019-05-01T20:01:38.473Z,87.70
2019-05-01T20:04:08.552Z,88.00
2019-05-01T20:06:41.207Z,88.20
2019-05-01T20:09:13.306Z,88.50
2019-05-01T20:11:43.621Z,88.60
2019-05-01T20:14:15.231Z,88.90
2019-05-01T20:16:46.505Z,89.00
2019-05-01T20:19:18.039Z,89.20
2019-05-01T20:21:48.439Z,89.30
2019-05-01T20:24:20.049Z,89.40
2019-05-01T20:26:53.626Z,89.50
2019-05-01T20:29:27.502Z,90.30
2019-05-01T20:32:01.449Z,90.10
2019-05-01T20:34:33.274Z,90.30
2019-05-01T20:37:05.946Z,90.60
2019-05-01T20:39:39.388Z,90.80
2019-05-01T20:42:11.361Z,91.00
2019-05-01T20:44:43.714Z,91.30
2019-05-01T20:47:15.966Z,91.40
2019-05-01T20:49:48.606Z,91.80
2019-05-01T20:52:20.589Z,92.10
2019-05-01T20:54:55.098Z,92.10
2019-05-01T20:57:34.662Z,92.30
2019-05-01T21:00:11.457Z,92.30
2019-05-01T21:02:43.352Z,92.40
2019-05-01T21:05:25.133Z,92.60
2019-05-01T21:08:15.458Z,92.70
2019-05-01T21:10:54.977Z,92.80
2019-05-01T21:13:28.425Z,93.00
2019-05-01T21:16:01.923Z,93.00
2019-05-01T21:18:36.513Z,93.10
2019-05-01T21:21:09.936Z,93.00
2019-05-01T21:23:48.147Z,93.20
2019-05-01T21:26:23.438Z,93.30
2019-05-01T21:28:55.028Z,93.60
2019-05-01T21:31:27.278Z,93.60
2019-05-01T21:33:59.462Z,93.60
2019-05-01T21:36:33.757Z,93.80
2019-05-01T21:39:08.464Z,93.80
2019-05-01T21:41:43.253Z,93.70
2019-05-01T21:44:15.501Z,94.10
2019-05-01T21:46:47.766Z,93.80
2019-05-01T21:49:19.730Z,94.00
2019-05-01T21:51:53.498Z,94.20
2019-05-01T21:54:27.932Z,94.20
2019-05-01T21:56:58.257Z,94.30
2019-05-01T21:59:28.587Z,94.40
2019-05-01T22:01:59.008Z,94.60
2019-05-01T22:04:31.919Z,94.70
2019-05-01T22:07:01.379Z,94.90
2019-05-01T22:09:31.757Z,95.30
2019-05-01T22:12:02.080Z,95.50
2019-05-01T22:14:54.461Z,95.30
2019-05-01T22:17:49.865Z,95.70
2019-05-01T22:20:27.353Z,96.10
2019-05-01T22:23:02.119Z,96.20
2019-05-01T22:25:36.556Z,96.20
2019-05-01T22:28:18.831Z,96.20
2019-05-01T22:31:07.021Z,96.50
2019-05-01T22:33:38.354Z,96.50
2019-05-01T22:36:10.698Z,96.60
2019-05-01T22:38:41.130Z,96.80
2019-05-01T22:41:12.798Z,96.90
2019-05-01T22:43:45.930Z,96.90
2019-05-01T22:46:27.253Z,97.00
2019-05-01T22:48:57.620Z,97.20
2019-05-01T22:51:27.929Z,97.30
2019-05-01T22:53:58.354Z,97.20
2019-05-01T22:56:30.088Z,97.30
2019-05-01T22:59:00.452Z,97.60
2019-05-01T23:01:30.952Z,97.70
2019-05-01T23:04:12.031Z,97.40
2019-05-01T23:06:43.502Z,97.40
2019-05-01T23:09:15.885Z,97.60
2019-05-01T23:11:47.373Z,97.80
2019-05-01T23:14:18.153Z,97.80
2019-05-01T23:17:16.757Z,97.80
2019-05-01T23:19:47.141Z,97.80
2019-05-01T23:22:17.745Z,97.80
2019-05-01T23:24:48.069Z,97.60
2019-05-01T23:27:18.416Z,97.30
2019-05-01T23:29:48.777Z,97.30
2019-05-01T23:32:19.256Z,97.40
2019-05-01T23:34:49.994Z,97.60
2019-05-01T23:37:20.330Z,97.90
2019-05-01T23:39:50.764Z,97.90
2019-05-01T23:42:21.194Z,97.70
2019-05-01T23:44:51.493Z,97.70
2019-05-01T23:47:21.910Z,97.70
2019-05-01T23:49:52.735Z,97.70
2019-05-01T23:52:24.143Z,97.60
2019-05-01T23:54:54.469Z,97.60
2019-05-01T23:57:24.797Z,97.60
2019-05-01T23:59:55.094Z,97.60
